Time;durP1;ratioP1;P1;durP2;ratioP2;P2;SDS_P1;SDS_P2;PMS_P1;PMS_P2;Temp;Humidity;BMP_temperature;BMP_pressure;BME280_temperature;BME280_humidity;BME280_pressure;Samples;Min_cycle;Max_cycle;Signal;HPM_P1;HPM_P2
2022/06/28 00:00:34;;;;;;;10.65;8.55;;;16.50;99.90;;;;;;5069543;28;20084;-77
2022/06/28 00:03:00;;;;;;;14.00;8.93;;;16.40;99.90;;;;;;5052893;28;20045;-77
2022/06/28 00:05:26;;;;;;;12.38;8.85;;;16.40;99.90;;;;;;5036422;28;20067;-76
2022/06/28 00:07:51;;;;;;;12.20;9.35;;;16.40;99.90;;;;;;5035455;28;20098;-76
2022/06/28 00:10:17;;;;;;;14.38;11.13;;;16.40;99.90;;;;;;5052294;28;20060;-77
2022/06/28 00:12:43;;;;;;;12.85;9.65;;;16.30;99.90;;;;;;5052600;28;20047;-77
2022/06/28 00:17:56;;;;;;;20.80;14.80;;;16.40;99.90;;;;;;5052572;28;20083;-77
2022/06/28 00:20:22;;;;;;;14.23;10.50;;;16.40;99.90;;;;;;5052783;28;20084;-77
2022/06/28 00:22:48;;;;;;;20.58;12.73;;;16.50;99.90;;;;;;5051801;28;20049;-77
2022/06/28 00:25:14;;;;;;;15.57;10.93;;;16.50;99.90;;;;;;5052465;28;20114;-77
2022/06/28 00:27:40;;;;;;;17.55;12.27;;;16.50;99.90;;;;;;5052661;28;20045;-77
2022/06/28 00:30:07;;;;;;;17.77;12.68;;;16.50;99.90;;;;;;5052451;28;20385;-77
2022/06/28 00:32:34;;;;;;;15.30;10.43;;;16.60;99.90;;;;;;5052746;28;20461;-77
2022/06/28 00:35:00;;;;;;;16.10;10.57;;;16.60;99.90;;;;;;5035233;28;20133;-77
2022/06/28 00:37:27;;;;;;;21.58;13.00;;;16.50;99.90;;;;;;5051804;28;20088;-78
2022/06/28 00:39:53;;;;;;;15.23;9.88;;;16.50;99.90;;;;;;5052416;28;20450;-77
2022/06/28 00:42:18;;;;;;;12.20;9.77;;;16.60;99.90;;;;;;5052336;28;20103;-77
2022/06/28 00:44:45;;;;;;;12.07;9.57;;;16.50;99.90;;;;;;5035748;28;20473;-76
2022/06/28 00:47:11;;;;;;;13.82;9.65;;;16.50;99.90;;;;;;5052308;28;20059;-77
2022/06/28 00:49:41;;;;;;;11.02;9.68;;;16.50;99.90;;;;;;5052262;28;20053;-77
2022/06/28 00:52:09;;;;;;;17.15;12.27;;;16.50;99.90;;;;;;5052185;28;20049;-77
2022/06/28 00:54:35;;;;;;;15.68;11.05;;;16.50;99.90;;;;;;5052165;28;20131;-77
2022/06/28 00:57:01;;;;;;;21.75;13.60;;;16.50;99.90;;;;;;5051898;28;20179;-77
2022/06/28 00:59:27;;;;;;;14.88;10.18;;;16.50;99.90;;;;;;5052190;28;20103;-77
2022/06/28 01:01:53;;;;;;;21.67;13.45;;;16.50;99.90;;;;;;5052511;28;20041;-76
2022/06/28 01:04:19;;;;;;;15.57;10.15;;;16.50;99.90;;;;;;5052137;28;20041;-77
2022/06/28 01:06:45;;;;;;;10.35;9.00;;;16.50;99.90;;;;;;5055586;28;20472;-77
2022/06/28 01:09:11;;;;;;;14.45;9.88;;;16.40;99.90;;;;;;5055569;28;20053;-76
2022/06/28 01:11:36;;;;;;;19.20;12.07;;;16.30;99.90;;;;;;5039394;28;20540;-76
2022/06/28 01:14:07;;;;;;;16.70;12.38;;;16.30;99.90;;;;;;5039202;28;20136;-77
2022/06/28 01:16:34;;;;;;;14.80;10.77;;;16.20;99.90;;;;;;5055599;28;20049;-77
2022/06/28 01:19:00;;;;;;;15.60;9.27;;;16.20;99.90;;;;;;5072351;28;20064;-77
2022/06/28 01:21:29;;;;;;;15.23;10.25;;;16.10;99.90;;;;;;5055664;28;20049;-77
2022/06/28 01:23:55;;;;;;;13.00;9.25;;;16.10;99.90;;;;;;5038935;28;20095;-77
2022/06/28 01:26:21;;;;;;;19.50;11.95;;;16.10;99.90;;;;;;5055548;28;20489;-77
2022/06/28 01:28:52;;;;;;;12.80;9.82;;;16.10;99.90;;;;;;5055708;28;20045;-77
2022/06/28 01:31:19;;;;;;;12.90;9.50;;;16.00;99.90;;;;;;5055103;28;20056;-77
2022/06/28 01:33:45;;;;;;;12.57;9.38;;;16.00;99.90;;;;;;5055080;28;20486;-77
2022/06/28 01:36:11;;;;;;;15.00;9.02;;;15.90;99.90;;;;;;5054598;28;20101;-77
2022/06/28 01:38:39;;;;;;;11.45;8.60;;;15.90;99.90;;;;;;5054972;28;20079;-77
2022/06/28 01:41:05;;;;;;;11.48;8.75;;;15.90;99.90;;;;;;5055562;28;20057;-77
2022/06/28 01:43:32;;;;;;;10.48;8.27;;;15.90;99.90;;;;;;5038631;28;20373;-77
2022/06/28 01:45:59;;;;;;;11.77;8.48;;;15.80;99.90;;;;;;5055098;28;20492;-77
2022/06/28 01:48:25;;;;;;;11.68;8.52;;;15.80;99.90;;;;;;5055082;28;20049;-77
2022/06/28 01:50:54;;;;;;;11.18;8.05;;;15.80;99.90;;;;;;5038445;28;20048;-77
2022/06/28 01:53:20;;;;;;;16.50;9.55;;;15.80;99.90;;;;;;5054720;28;20040;-77
2022/06/28 01:55:46;;;;;;;11.15;8.07;;;15.70;99.90;;;;;;5054864;28;20049;-77
2022/06/28 01:58:13;;;;;;;12.20;8.15;;;15.60;99.90;;;;;;5055041;28;20075;-76
2022/06/28 02:00:39;;;;;;;11.65;7.78;;;15.60;99.90;;;;;;5070948;28;20071;-77
2022/06/28 02:03:05;;;;;;;10.52;8.73;;;15.60;99.90;;;;;;5038239;28;20049;-77
2022/06/28 02:05:31;;;;;;;10.10;8.52;;;15.50;99.90;;;;;;5054756;28;20127;-77
2022/06/28 02:07:57;;;;;;;9.38;8.02;;;15.50;99.90;;;;;;5038162;28;20044;-76
2022/06/28 02:10:23;;;;;;;15.48;9.00;;;15.50;99.90;;;;;;5054162;28;20396;-76
2022/06/28 02:12:49;;;;;;;10.00;8.20;;;15.50;99.90;;;;;;5037796;28;20110;-76
2022/06/28 02:15:15;;;;;;;11.50;8.15;;;15.40;99.90;;;;;;5054565;28;20049;-76
2022/06/28 02:17:42;;;;;;;10.15;8.30;;;15.40;99.90;;;;;;5054241;28;20427;-76
2022/06/28 02:20:09;;;;;;;12.90;8.30;;;15.40;99.90;;;;;;5054721;28;20053;-77
2022/06/28 02:22:35;;;;;;;12.25;8.55;;;15.40;99.90;;;;;;5054953;28;20052;-76
2022/06/28 02:25:00;;;;;;;13.18;8.60;;;15.30;99.90;;;;;;5037824;28;20055;-76
2022/06/28 02:27:26;;;;;;;16.30;9.40;;;15.30;99.90;;;;;;5054386;28;20049;-77
2022/06/28 02:29:52;;;;;;;13.32;8.38;;;15.30;99.90;;;;;;5053778;28;20044;-76
2022/06/28 02:32:18;;;;;;;12.00;9.20;;;15.40;99.90;;;;;;5054005;28;20045;-77
2022/06/28 02:40:21;;;;;;;14.10;10.20;;;15.50;99.90;;;;;;5054087;28;20071;-77
2022/06/28 02:42:57;;;;;;;13.23;8.48;;;15.40;99.90;;;;;;5037465;28;20056;-77
2022/06/28 02:45:24;;;;;;;8.38;7.47;;;15.50;99.90;;;;;;5071217;28;20041;-77
2022/06/28 02:47:51;;;;;;;11.93;8.18;;;15.50;99.90;;;;;;5054156;28;20166;-76
2022/06/28 02:50:17;;;;;;;11.35;8.23;;;15.40;99.90;;;;;;5053930;28;20122;-77
2022/06/28 02:52:42;;;;;;;11.55;8.60;;;15.50;99.90;;;;;;5054122;28;20053;-76
2022/06/28 02:55:08;;;;;;;10.85;9.23;;;15.50;99.90;;;;;;5053789;28;20486;-77
2022/06/28 02:57:36;;;;;;;12.25;8.85;;;15.40;99.90;;;;;;5053814;28;20049;-76
2022/06/28 03:00:07;;;;;;;10.57;8.40;;;15.40;99.90;;;;;;5053764;28;20179;-76
2022/06/28 03:02:35;;;;;;;12.82;8.68;;;15.30;99.90;;;;;;5053433;28;20128;-77
2022/06/28 03:05:05;;;;;;;13.43;8.50;;;15.20;99.90;;;;;;5053510;28;20080;-76
2022/06/28 03:07:31;;;;;;;11.27;8.30;;;15.20;99.90;;;;;;5036505;28;20045;-76
2022/06/28 03:09:57;;;;;;;11.52;9.32;;;15.20;99.90;;;;;;5053243;28;20106;-77
2022/06/28 03:12:22;;;;;;;10.50;8.02;;;15.20;99.90;;;;;;5053520;28;20045;-76
2022/06/28 03:14:48;;;;;;;11.02;8.35;;;15.20;99.90;;;;;;5054463;28;20136;-76
2022/06/28 03:17:13;;;;;;;9.07;7.82;;;15.20;99.90;;;;;;5053234;28;20044;-77
2022/06/28 03:19:39;;;;;;;10.63;8.77;;;15.20;99.90;;;;;;5020323;28;20140;-76
2022/06/28 03:22:05;;;;;;;12.70;8.93;;;15.00;99.90;;;;;;5053491;28;20408;-76
2022/06/28 03:24:30;;;;;;;11.77;7.80;;;15.10;99.90;;;;;;5053304;28;20404;-76
2022/06/28 03:26:56;;;;;;;11.90;7.72;;;15.20;99.90;;;;;;5036643;28;20460;-76
2022/06/28 03:29:22;;;;;;;14.85;9.35;;;15.20;99.90;;;;;;5036224;28;20499;-76
2022/06/28 03:31:48;;;;;;;11.45;8.00;;;15.20;99.90;;;;;;5053237;28;20392;-76
2022/06/28 03:34:15;;;;;;;13.75;9.13;;;15.20;99.90;;;;;;5053024;28;20138;-77
2022/06/28 03:36:40;;;;;;;12.88;8.50;;;15.20;99.90;;;;;;5054487;28;20103;-77
2022/06/28 03:39:06;;;;;;;10.90;8.48;;;15.20;99.90;;;;;;5052723;28;20479;-77
2022/06/28 03:41:32;;;;;;;11.32;7.93;;;15.20;99.90;;;;;;5053060;28;20182;-76
2022/06/28 03:43:57;;;;;;;8.05;7.18;;;15.20;99.90;;;;;;5052665;28;20041;-77
2022/06/28 03:46:23;;;;;;;12.80;9.43;;;15.20;99.90;;;;;;5052884;28;20044;-76
2022/06/28 03:48:49;;;;;;;11.38;7.65;;;15.20;99.90;;;;;;5053006;28;20045;-76
2022/06/28 03:51:15;;;;;;;10.45;8.20;;;15.30;99.90;;;;;;5053039;28;20052;-76
2022/06/28 03:53:41;;;;;;;21.85;11.90;;;15.40;99.90;;;;;;5052808;28;20053;-77
2022/06/28 03:56:07;;;;;;;11.05;8.15;;;15.50;99.90;;;;;;5052665;28;20056;-76
2022/06/28 03:58:33;;;;;;;14.30;11.18;;;15.30;99.90;;;;;;5052824;28;20049;-76
2022/06/28 04:01:00;;;;;;;9.10;8.02;;;15.40;99.90;;;;;;5052701;28;20053;-76
2022/06/28 04:03:26;;;;;;;15.23;8.73;;;15.50;99.90;;;;;;5036210;28;20049;-76
2022/06/28 04:05:52;;;;;;;14.00;8.43;;;15.40;99.90;;;;;;5052337;28;20052;-76
2022/06/28 04:08:18;;;;;;;14.57;8.38;;;15.50;99.90;;;;;;5052629;28;20044;-76
2022/06/28 04:10:44;;;;;;;14.27;9.70;;;15.50;99.90;;;;;;5052330;28;20045;-76
2022/06/28 04:13:10;;;;;;;15.80;10.73;;;15.60;99.90;;;;;;5052584;28;20049;-76
2022/06/28 04:15:37;;;;;;;11.10;8.60;;;15.60;99.90;;;;;;5052423;28;20503;-76
2022/06/28 04:18:06;;;;;;;14.80;9.93;;;15.60;99.90;;;;;;5052018;28;20045;-76
2022/06/28 04:20:33;;;;;;;25.13;13.88;;;15.70;99.90;;;;;;5052406;28;20567;-76
2022/06/28 04:22:59;;;;;;;15.77;9.95;;;15.70;99.90;;;;;;5052693;28;20142;-76
2022/06/28 04:25:25;;;;;;;13.90;9.57;;;15.70;99.90;;;;;;5035945;28;20099;-76
2022/06/28 04:27:56;;;;;;;15.82;10.55;;;15.70;99.90;;;;;;5052169;28;20052;-76
2022/06/28 04:30:24;;;;;;;12.30;9.20;;;15.70;99.90;;;;;;5052855;28;20065;-76
2022/06/28 04:32:50;;;;;;;15.50;9.35;;;15.70;99.90;;;;;;5052468;28;20050;-77
2022/06/28 04:35:16;;;;;;;12.50;8.35;;;15.80;99.90;;;;;;5051695;28;20144;-77
2022/06/28 04:37:41;;;;;;;13.52;8.70;;;15.80;99.90;;;;;;5052366;28;20049;-77
2022/06/28 04:40:07;;;;;;;12.55;8.52;;;15.90;99.90;;;;;;5053104;28;20045;-77
2022/06/28 04:42:35;;;;;;;10.57;7.50;;;16.00;99.90;;;;;;5039697;28;20052;-77
2022/06/28 04:45:01;;;;;;;11.93;7.93;;;16.00;99.90;;;;;;5039700;28;20081;-76
2022/06/28 04:47:26;;;;;;;12.60;8.00;;;16.10;99.90;;;;;;5072964;28;20527;-77
2022/06/28 04:49:52;;;;;;;13.02;7.68;;;16.20;99.90;;;;;;5072961;28;20045;-77
2022/06/28 04:52:18;;;;;;;10.73;7.13;;;16.20;99.90;;;;;;5056096;28;20115;-77
2022/06/28 04:54:43;;;;;;;10.68;7.00;;;16.20;99.90;;;;;;5039473;28;20049;-76
2022/06/28 04:57:09;;;;;;;10.50;7.53;;;16.30;99.90;;;;;;5072412;28;20095;-77
2022/06/28 04:59:34;;;;;;;10.93;7.13;;;16.30;99.90;;;;;;5055749;28;20132;-76
2022/06/28 05:02:00;;;;;;;13.38;7.43;;;16.50;99.90;;;;;;5039530;28;20045;-77
2022/06/28 05:04:26;;;;;;;18.13;8.30;;;16.60;99.90;;;;;;5055950;28;20045;-77
2022/06/28 05:06:51;;;;;;;15.23;8.55;;;16.70;99.90;;;;;;5039367;28;20499;-77
2022/06/28 05:09:17;;;;;;;9.95;6.97;;;16.70;99.90;;;;;;5055496;28;20614;-77
2022/06/28 05:11:43;;;;;;;11.57;7.13;;;16.70;99.90;;;;;;5072531;28;20143;-77
2022/06/28 05:14:08;;;;;;;11.25;7.57;;;16.80;99.90;;;;;;5056119;28;20131;-77
2022/06/28 05:16:34;;;;;;;10.35;6.88;;;16.90;99.90;;;;;;5038950;28;20052;-77
2022/06/28 05:18:59;;;;;;;13.98;8.23;;;17.00;99.90;;;;;;5055675;28;20045;-77
2022/06/28 05:21:25;;;;;;;10.00;6.07;;;17.00;99.90;;;;;;5056162;28;20053;-77
2022/06/28 05:23:52;;;;;;;9.38;7.15;;;17.00;99.90;;;;;;5055311;28;20053;-77
2022/06/28 05:26:19;;;;;;;10.63;7.03;;;17.10;99.90;;;;;;5055543;28;20061;-77
2022/06/28 05:28:45;;;;;;;12.48;6.60;;;17.30;99.90;;;;;;5055527;28;20120;-77
2022/06/28 05:31:10;;;;;;;11.75;6.95;;;17.30;99.90;;;;;;5055517;28;20075;-76
2022/06/28 05:33:36;;;;;;;8.80;7.00;;;17.40;99.90;;;;;;5055392;28;20102;-77
2022/06/28 05:36:02;;;;;;;12.68;6.55;;;17.40;99.90;;;;;;5037975;28;20164;-77
2022/06/28 05:38:29;;;;;;;13.70;6.25;;;17.50;99.90;;;;;;5038374;28;20056;-77
2022/06/28 05:40:55;;;;;;;11.77;6.32;;;17.40;99.90;;;;;;5054602;28;20057;-77
2022/06/28 05:43:21;;;;;;;10.18;6.53;;;17.50;99.90;;;;;;5055314;28;20044;-77
2022/06/28 05:45:46;;;;;;;14.50;7.90;;;17.60;99.90;;;;;;5055171;28;20178;-76
2022/06/28 05:48:12;;;;;;;20.05;7.57;;;17.50;99.90;;;;;;5055105;28;20048;-77
2022/06/28 05:50:38;;;;;;;12.43;6.70;;;17.50;99.90;;;;;;5055033;28;20049;-77
2022/06/28 05:53:04;;;;;;;11.40;6.90;;;17.60;99.90;;;;;;5054504;28;20048;-76
2022/06/28 05:55:31;;;;;;;11.43;6.28;;;17.70;99.90;;;;;;5054995;28;20049;-77
2022/06/28 05:57:57;;;;;;;11.75;6.07;;;17.70;99.90;;;;;;5054935;28;20476;-76
2022/06/28 06:00:22;;;;;;;13.75;5.82;;;17.80;99.90;;;;;;5054624;28;20506;-77
2022/06/28 06:02:48;;;;;;;10.48;5.45;;;17.70;99.90;;;;;;5054879;28;20041;-77
2022/06/28 06:05:14;;;;;;;11.00;6.38;;;17.50;99.90;;;;;;5054696;28;20095;-77
2022/06/28 06:07:39;;;;;;;9.77;6.18;;;17.50;99.90;;;;;;5054789;28;20045;-76
2022/06/28 06:10:06;;;;;;;11.70;6.57;;;17.60;99.90;;;;;;5054507;28;20048;-77
2022/06/28 06:12:32;;;;;;;12.02;5.95;;;17.60;99.90;;;;;;5054396;28;20131;-77
2022/06/28 06:14:58;;;;;;;8.07;5.05;;;17.60;99.90;;;;;;5054728;28;20127;-76
2022/06/28 06:17:24;;;;;;;10.23;5.75;;;17.60;99.90;;;;;;5054273;28;20075;-77
2022/06/28 06:19:50;;;;;;;13.35;5.75;;;17.70;99.90;;;;;;5054520;28;20041;-77
2022/06/28 06:22:15;;;;;;;10.70;5.97;;;17.80;99.90;;;;;;5037958;28;20045;-77
2022/06/28 06:24:41;;;;;;;10.13;5.85;;;17.90;99.90;;;;;;5037882;28;20053;-77
2022/06/28 06:27:07;;;;;;;12.00;5.82;;;18.00;99.90;;;;;;5054445;28;20066;-76
2022/06/28 06:29:32;;;;;;;14.43;7.43;;;18.20;99.90;;;;;;5054431;28;20068;-76
2022/06/28 06:31:58;;;;;;;14.55;7.20;;;18.30;99.90;;;;;;5054336;28;20383;-77
2022/06/28 06:34:24;;;;;;;14.98;7.35;;;18.20;99.90;;;;;;5054306;28;20041;-76
2022/06/28 06:36:50;;;;;;;12.15;6.47;;;18.20;99.90;;;;;;5053934;28;20044;-76
2022/06/28 06:39:16;;;;;;;13.30;6.80;;;18.30;99.90;;;;;;5054363;28;20103;-77
2022/06/28 06:41:42;;;;;;;15.65;6.95;;;18.40;99.90;;;;;;5037544;28;20522;-76
2022/06/28 06:44:08;;;;;;;11.77;6.18;;;18.40;99.90;;;;;;5054118;28;20055;-76
2022/06/28 06:46:33;;;;;;;14.27;6.70;;;18.30;99.90;;;;;;5053733;28;20491;-77
2022/06/28 06:48:59;;;;;;;13.57;6.88;;;18.30;99.90;;;;;;5053718;28;20059;-76
2022/06/28 06:51:25;;;;;;;11.00;5.53;;;18.40;99.90;;;;;;5070599;28;20041;-76
2022/06/28 06:53:52;;;;;;;11.13;5.43;;;18.40;99.90;;;;;;5070552;28;20047;-76
2022/06/28 06:56:17;;;;;;;14.25;6.18;;;18.60;99.90;;;;;;5053631;28;20040;-76
2022/06/28 06:58:43;;;;;;;13.77;6.22;;;18.50;99.90;;;;;;5054018;28;20063;-76
2022/06/28 07:01:09;;;;;;;12.07;6.03;;;18.60;99.90;;;;;;5037195;28;20056;-77
2022/06/28 07:03:35;;;;;;;16.85;5.53;;;18.80;99.90;;;;;;5053357;28;20128;-77
2022/06/28 07:06:01;;;;;;;15.18;5.72;;;18.90;99.90;;;;;;5053691;28;20060;-76
2022/06/28 07:08:27;;;;;;;12.98;5.45;;;19.10;99.90;;;;;;5053636;28;20098;-77
2022/06/28 07:10:52;;;;;;;9.70;4.32;;;19.10;99.90;;;;;;5053239;28;20431;-76
2022/06/28 07:13:18;;;;;;;11.07;4.10;;;19.20;99.90;;;;;;5037052;28;20368;-76
2022/06/28 07:15:44;;;;;;;15.60;4.65;;;18.90;99.90;;;;;;5053478;28;20099;-77
2022/06/28 07:18:10;;;;;;;10.82;4.22;;;18.90;99.90;;;;;;5053689;28;20047;-76
2022/06/28 07:20:35;;;;;;;20.08;5.45;;;19.10;99.90;;;;;;5053779;28;20053;-76
2022/06/28 07:23:01;;;;;;;12.52;4.82;;;19.10;99.90;;;;;;5053347;28;20076;-76
2022/06/28 07:25:27;;;;;;;15.43;6.03;;;19.10;99.90;;;;;;5053309;28;20049;-76
2022/06/28 07:27:53;;;;;;;12.40;4.75;;;19.40;99.90;;;;;;5053176;28;20080;-77
2022/06/28 07:30:19;;;;;;;7.47;4.20;;;19.50;99.90;;;;;;5052921;28;20073;-76
2022/06/28 07:32:44;;;;;;;11.52;4.00;;;19.60;99.90;;;;;;5052542;28;20052;-77
2022/06/28 07:35:10;;;;;;;10.05;4.25;;;19.50;99.90;;;;;;5051448;28;20049;-77
2022/06/28 07:37:36;;;;;;;12.10;4.18;;;19.40;99.90;;;;;;5052306;28;20060;-76
2022/06/28 07:40:06;;;;;;;11.73;4.43;;;19.50;99.90;;;;;;5052611;28;20053;-77
2022/06/28 07:42:32;;;;;;;12.75;4.28;;;19.70;99.90;;;;;;5052799;28;20071;-76
2022/06/28 07:44:58;;;;;;;16.63;3.65;;;19.80;99.90;;;;;;5052716;28;20480;-77
2022/06/28 07:47:23;;;;;;;9.68;3.83;;;20.00;99.90;;;;;;5052767;28;20055;-81
2022/06/28 07:52:39;;;;;;;12.55;2.88;;;20.10;99.90;;;;;;5052983;28;20057;-80
2022/06/28 07:55:07;;;;;;;9.13;2.22;;;19.80;99.90;;;;;;5036275;28;20102;-78
2022/06/28 07:57:33;;;;;;;9.90;3.17;;;19.80;99.90;;;;;;5052685;28;20044;-80
2022/06/28 07:59:59;;;;;;;11.57;2.90;;;19.90;99.90;;;;;;5052975;28;20060;-76
2022/06/28 08:02:25;;;;;;;10.40;3.10;;;19.90;99.90;;;;;;5052730;28;20080;-80
2022/06/28 08:04:51;;;;;;;8.50;2.80;;;20.10;99.90;;;;;;5036046;28;20055;-80
2022/06/28 08:07:18;;;;;;;9.75;2.75;;;20.30;99.90;;;;;;5060757;28;20081;-80
2022/06/28 08:09:44;;;;;;;6.53;1.67;;;20.50;99.90;;;;;;5039147;28;20135;-78
2022/06/28 08:12:09;;;;;;;12.20;1.85;;;20.50;99.90;;;;;;5052677;28;20128;-77
2022/06/28 08:14:35;;;;;;;9.02;1.77;;;20.40;99.90;;;;;;5052631;28;20059;-77
2022/06/28 08:17:02;;;;;;;7.28;1.30;;;20.10;99.90;;;;;;5052348;28;20049;-79
2022/06/28 08:19:28;;;;;;;7.28;1.70;;;20.10;99.90;;;;;;5052492;28;20053;-78
2022/06/28 08:21:54;;;;;;;8.90;1.40;;;20.30;99.90;;;;;;5052556;28;20139;-79
2022/06/28 08:24:20;;;;;;;12.07;1.52;;;20.40;99.90;;;;;;5053621;28;20128;-77
2022/06/28 08:26:45;;;;;;;8.18;1.73;;;20.50;99.90;;;;;;5053396;28;20041;-78
2022/06/28 08:29:13;;;;;;;6.53;1.15;;;20.70;99.90;;;;;;5052449;28;20076;-77
2022/06/28 08:31:39;;;;;;;7.47;1.23;;;20.70;99.90;;;;;;5052759;28;20044;-77
2022/06/28 08:34:11;;;;;;;8.50;2.08;;;21.00;99.90;;;;;;5035853;28;20045;-77
2022/06/28 08:36:37;;;;;;;14.80;1.60;;;21.10;99.90;;;;;;5052271;28;20064;-77
2022/06/28 08:39:03;;;;;;;10.70;1.30;;;21.20;99.90;;;;;;5052125;28;20053;-78
2022/06/28 08:41:33;;;;;;;5.32;1.42;;;21.00;99.90;;;;;;5035703;28;20053;-77
2022/06/28 08:43:59;;;;;;;6.78;1.58;;;21.00;99.90;;;;;;5053645;28;20480;-78
2022/06/28 08:46:25;;;;;;;5.35;1.00;;;21.10;99.90;;;;;;5035661;28;20136;-77
2022/06/28 08:49:08;;;;;;;14.38;1.48;;;21.10;99.90;;;;;;5052261;28;20049;-78
2022/06/28 08:51:34;;;;;;;6.93;1.05;;;21.30;99.90;;;;;;5052356;28;20053;-78
2022/06/28 08:54:01;;;;;;;5.82;1.10;;;21.50;99.90;;;;;;5035669;28;20049;-72
2022/06/28 08:56:27;;;;;;;4.10;1.15;;;21.50;99.90;;;;;;5053223;28;20049;-74
2022/06/28 08:58:58;;;;;;;6.05;1.00;;;21.40;99.90;;;;;;5052262;28;20098;-77
2022/06/28 09:01:24;;;;;;;6.03;1.00;;;21.60;99.90;;;;;;5053454;28;20045;-78
2022/06/28 09:03:52;;;;;;;8.95;1.30;;;21.50;99.90;;;;;;5052253;28;20052;-77
2022/06/28 09:06:18;;;;;;;6.22;1.25;;;21.50;99.90;;;;;;5052076;28;20484;-78
2022/06/28 09:08:43;;;;;;;8.23;1.35;;;21.50;99.90;;;;;;5053013;28;20057;-78
2022/06/28 09:11:09;;;;;;;5.45;1.23;;;21.50;99.90;;;;;;5067905;28;20472;-78
2022/06/28 09:13:36;;;;;;;7.10;1.30;;;21.40;99.90;;;;;;5068885;28;20041;-78
2022/06/28 09:16:04;;;;;;;8.82;1.35;;;21.60;99.90;;;;;;5051843;28;20049;-78
2022/06/28 09:18:36;;;;;;;6.53;0.90;;;21.70;99.90;;;;;;5051975;28;20096;-78
2022/06/28 09:21:08;;;;;;;11.75;1.42;;;21.80;99.90;;;;;;5051729;28;20056;-78
2022/06/28 09:23:37;;;;;;;7.20;1.33;;;22.00;99.90;;;;;;5052422;28;20127;-78
2022/06/28 09:26:06;;;;;;;8.32;1.38;;;21.60;99.90;;;;;;5053683;28;20037;-76
2022/06/28 09:28:33;;;;;;;5.97;1.10;;;21.50;99.90;;;;;;5056746;28;20488;-76
2022/06/28 09:31:21;;;;;;;9.15;1.50;;;21.60;99.90;;;;;;5072009;28;20049;-76
2022/06/28 09:34:04;;;;;;;9.43;1.38;;;21.60;99.90;;;;;;5055600;28;20041;-77
2022/06/28 09:36:35;;;;;;;5.80;0.98;;;21.70;99.90;;;;;;5038292;28;20053;-75
2022/06/28 09:39:10;;;;;;;7.93;1.10;;;21.50;99.90;;;;;;5038656;28;20476;-76
2022/06/28 09:41:36;;;;;;;7.75;1.25;;;21.60;99.90;;;;;;5055335;28;20055;-76
2022/06/28 09:44:03;;;;;;;10.18;1.63;;;21.60;99.90;;;;;;5071792;28;20391;-75
2022/06/28 09:46:33;;;;;;;8.60;1.25;;;21.60;99.90;;;;;;5054270;28;20431;-76
2022/06/28 09:49:01;;;;;;;5.45;0.88;;;21.60;99.90;;;;;;5055866;28;20045;-74
2022/06/28 09:51:29;;;;;;;4.40;0.98;;;21.80;99.90;;;;;;5054359;28;20053;-77
2022/06/28 09:54:03;;;;;;;4.00;0.90;;;21.90;99.90;;;;;;5054667;28;20518;-77
2022/06/28 09:56:33;;;;;;;6.72;1.52;;;22.30;99.90;;;;;;5054400;28;20049;-75
2022/06/28 09:59:00;;;;;;;6.80;1.00;;;22.50;99.90;;;;;;5054203;28;20045;-76
2022/06/28 10:01:25;;;;;;;9.05;1.35;;;22.70;99.90;;;;;;5054719;28;20045;-77
2022/06/28 10:03:52;;;;;;;7.35;1.17;;;22.60;99.90;;;;;;5071241;28;20059;-80
2022/06/28 10:06:21;;;;;;;6.43;1.35;;;22.10;99.90;;;;;;5054658;28;20053;-78
2022/06/28 10:08:47;;;;;;;6.25;1.00;;;21.80;99.90;;;;;;5054577;28;20446;-77
2022/06/28 10:11:14;;;;;;;6.35;0.90;;;21.60;99.90;;;;;;5054049;28;20045;-77
2022/06/28 10:16:46;;;;;;;5.15;1.00;;;22.00;99.90;;;;;;5054455;28;20060;-75
2022/06/28 10:19:16;;;;;;;8.95;1.50;;;22.10;99.90;;;;;;5054324;28;20049;-75
2022/06/28 10:21:44;;;;;;;10.55;1.58;;;22.00;99.90;;;;;;5053570;28;20048;-74
2022/06/28 10:24:11;;;;;;;6.95;0.90;;;22.00;99.90;;;;;;5055123;28;20049;-74
2022/06/28 10:26:37;;;;;;;10.25;1.50;;;21.90;99.90;;;;;;5071159;28;20055;-75
2022/06/28 10:29:08;;;;;;;7.30;1.65;;;22.10;99.90;;;;;;5037725;28;20048;-75
2022/06/28 10:31:44;;;;;;;7.85;1.42;;;22.40;99.90;;;;;;5054387;28;20063;-76
2022/06/28 10:34:13;;;;;;;;;;;22.40;99.90;;;;;;5054823;28;20049;-76
2022/06/28 10:36:46;;;;;;;6.00;0.95;;;22.70;99.90;;;;;;5053708;28;19920;-76
2022/06/28 10:39:29;;;;;;;9.63;1.40;;;22.80;99.90;;;;;;5053083;28;20064;-76
2022/06/28 10:41:58;;;;;;;5.05;1.00;;;23.20;99.90;;;;;;5054270;28;20053;-78
2022/06/28 10:44:27;;;;;;;6.18;1.08;;;23.60;99.90;;;;;;5054073;28;20435;-79
2022/06/28 10:47:09;;;;;;;4.28;0.70;;;23.90;99.90;;;;;;5054036;28;20447;-83
2022/06/28 10:49:51;;;;;;;6.45;1.38;;;23.90;99.90;;;;;;5054148;28;20049;-79
2022/06/28 10:52:26;;;;;;;7.10;1.38;;;24.00;99.90;;;;;;5055594;28;20059;-81
2022/06/28 10:54:52;;;;;;;6.78;1.38;;;24.10;99.90;;;;;;5053889;28;20496;-78
2022/06/28 10:57:36;;;;;;;9.23;1.10;;;24.50;99.90;;;;;;5053493;28;20064;-76
2022/06/28 11:00:20;;;;;;;8.75;1.30;;;24.30;99.90;;;;;;5053469;28;20076;-74
2022/06/28 11:02:47;;;;;;;7.05;1.35;;;23.80;99.90;;;;;;5054818;28;20092;-77
2022/06/28 11:05:12;;;;;;;5.45;1.20;;;23.80;99.90;;;;;;5053700;28;20122;-80
2022/06/28 11:07:40;;;;;;;7.13;1.85;;;24.10;99.90;;;;;;5036996;28;20480;-80
2022/06/28 11:10:16;;;;;;;6.00;1.00;;;23.80;99.90;;;;;;5053338;28;20033;-79
2022/06/28 11:12:42;;;;;;;8.00;1.30;;;24.40;99.90;;;;;;5070253;28;20053;-79
2022/06/28 11:15:36;;;;;;;6.07;1.10;;;24.60;99.90;;;;;;5053585;28;20098;-79
2022/06/28 11:18:13;;;;;;;7.88;1.38;;;24.90;99.90;;;;;;5058717;28;20128;-75
2022/06/28 11:20:39;;;;;;;7.10;1.20;;;25.20;99.90;;;;;;5036897;28;20094;-76
2022/06/28 11:23:06;;;;;;;5.25;1.17;;;25.00;99.90;;;;;;5053337;28;20049;-76
2022/06/28 11:28:16;;;;;;;8.07;1.50;;;24.80;99.90;;;;;;5053343;28;20132;-76
2022/06/28 11:30:42;;;;;;;5.15;1.00;;;24.40;99.90;;;;;;5036613;28;20064;-77
2022/06/28 11:33:10;;;;;;;7.88;1.02;;;24.20;99.90;;;;;;5069852;28;20049;-77
2022/06/28 11:35:36;;;;;;;9.80;1.25;;;24.20;99.90;;;;;;5052689;28;20100;-78
2022/06/28 11:38:07;;;;;;;5.60;0.93;;;24.60;99.90;;;;;;5053128;28;20080;-75
2022/06/28 11:40:42;;;;;;;7.03;1.45;;;24.90;99.90;;;;;;5052737;28;20049;-75
2022/06/28 11:43:18;;;;;;;4.45;0.90;;;25.30;99.90;;;;;;5052973;28;20099;-75
2022/06/28 11:45:51;;;;;;;8.52;1.38;;;25.00;99.90;;;;;;5053901;28;20077;-75
2022/06/28 11:48:21;;;;;;;5.45;1.05;;;24.80;99.90;;;;;;5053832;28;20123;-75
2022/06/28 11:50:52;;;;;;;4.88;1.02;;;24.70;99.90;;;;;;5053789;28;20053;-78
2022/06/28 11:53:18;;;;;;;7.50;1.30;;;25.20;99.90;;;;;;5052797;28;20088;-77
2022/06/28 11:55:45;;;;;;;4.90;1.00;;;25.40;99.90;;;;;;5052793;28;20079;-78
2022/06/28 11:58:16;;;;;;;3.10;0.75;;;25.70;99.90;;;;;;5036224;28;20048;-74
2022/06/28 12:01:11;;;;;;;5.50;1.20;;;26.00;99.90;;;;;;5053917;28;20451;-75
2022/06/28 12:03:43;;;;;;;4.20;1.23;;;26.40;99.90;;;;;;5052804;28;20179;-75
2022/06/28 12:06:11;;;;;;;4.30;0.98;;;26.20;99.90;;;;;;5052673;28;20049;-75
2022/06/28 12:08:43;;;;;;;5.78;1.00;;;26.40;99.90;;;;;;5053746;28;20056;-75
2022/06/28 12:11:35;;;;;;;5.43;1.00;;;26.40;99.20;;;;;;5052295;28;20049;-75
2022/06/28 12:14:14;;;;;;;3.95;1.00;;;26.50;99.90;;;;;;5053529;28;20049;-75
2022/06/28 12:16:39;;;;;;;6.10;1.00;;;26.30;99.90;;;;;;5052550;28;20041;-74
2022/06/28 12:19:09;;;;;;;5.70;1.20;;;26.40;99.90;;;;;;5052498;28;20045;-75
2022/06/28 12:21:35;;;;;;;5.45;1.23;;;26.60;99.60;;;;;;5052584;28;20075;-75
2022/06/28 12:24:00;;;;;;;11.05;1.50;;;26.80;99.90;;;;;;5068973;28;20134;-75
2022/06/28 12:26:46;;;;;;;6.20;1.30;;;27.00;99.90;;;;;;5052163;28;20095;-74
2022/06/28 12:29:13;;;;;;;4.65;0.98;;;27.10;99.40;;;;;;5053480;28;20091;-74
2022/06/28 12:31:44;;;;;;;3.45;0.95;;;27.00;99.00;;;;;;5053443;28;20072;-74
2022/06/28 12:34:10;;;;;;;4.20;1.08;;;26.10;99.90;;;;;;5052777;28;20057;-74
2022/06/28 12:36:36;;;;;;;4.72;0.77;;;25.90;99.50;;;;;;5053366;28;20060;-75
2022/06/28 12:39:03;;;;;;;4.00;0.90;;;26.20;99.90;;;;;;5053332;28;20053;-75
2022/06/28 12:41:29;;;;;;;4.68;0.98;;;26.40;99.60;;;;;;5051703;28;20048;-74
2022/06/28 12:43:55;;;;;;;4.25;0.88;;;26.90;99.50;;;;;;5053261;28;20052;-75
2022/06/28 12:46:20;;;;;;;5.47;1.00;;;27.10;99.50;;;;;;5052304;28;20052;-74
2022/06/28 12:48:46;;;;;;;5.78;0.90;;;27.50;99.70;;;;;;5053183;28;20041;-74
2022/06/28 12:51:12;;;;;;;4.65;0.80;;;27.60;98.20;;;;;;5052327;28;20049;-74
2022/06/28 12:53:37;;;;;;;5.10;0.60;;;27.70;99.00;;;;;;5053179;28;20044;-75
2022/06/28 12:56:03;;;;;;;5.18;0.80;;;27.60;98.90;;;;;;5051931;28;20128;-75
2022/06/28 12:58:29;;;;;;;3.85;1.02;;;27.10;97.70;;;;;;5052348;28;20400;-74